Terminal Aerodrome Forecast
Issued by NWS

Home | Current Version | Previous Version | Text Only | Print | Product List | Glossary On
Versions: 1 2 3 4 5 6 7 8 9 10 11 12 13 14 15
887
FTUS45 KTFX 051742
TAFCTB
TAF
KCTB 051742Z 0518/0618 34015KT P6SM VCSH SCT060 BKN100
     FM060000 35015G25KT P6SM -SHRA SCT040 BKN060
     FM060600 34015KT P6SM VCSH SCT025 BKN040
     FM061500 34010KT P6SM BKN050=

USA.gov is the U.S. government's official web portal to all federal, state and local government web resources and services.